createdAt,value
2018-02-04T00:04:01.571Z,1010.21
2018-02-04T00:19:01.630Z,1010.19
2018-02-04T00:34:01.290Z,1010.64
2018-02-04T00:49:07.658Z,1011.00
2018-02-04T00:54:01.483Z,1011.00
2018-02-04T01:09:02.678Z,1011.43
2018-02-04T01:24:01.573Z,1011.64
2018-02-04T01:39:02.590Z,1012.08
2018-02-04T01:54:02.616Z,1012.24
2018-02-04T02:00:01.532Z,1012.46
2018-02-04T02:10:01.554Z,1012.59
2018-02-04T02:15:01.487Z,1012.59
2018-02-04T02:30:01.608Z,1012.92
2018-02-04T02:45:01.545Z,1013.19
2018-02-04T03:00:01.603Z,1013.72
2018-02-04T03:15:01.635Z,1013.95
2018-02-04T03:25:01.301Z,1014.25
2018-02-04T03:30:01.711Z,1014.51
2018-02-04T03:35:01.490Z,1014.51
2018-02-04T03:45:01.696Z,1014.63
2018-02-04T03:50:01.604Z,1014.80
2018-02-04T04:00:01.710Z,1015.08
2018-02-04T04:15:01.872Z,1015.38
2018-02-04T04:30:01.621Z,1015.52
2018-02-04T04:45:01.806Z,1015.65
2018-02-04T05:00:01.672Z,1016.08
2018-02-04T05:15:01.543Z,1016.39
2018-02-04T05:20:01.615Z,1016.57
2018-02-04T05:30:01.569Z,1016.80
2018-02-04T05:45:01.436Z,1016.87
2018-02-04T05:50:01.282Z,1016.94
2018-02-04T06:00:01.852Z,1017.10
2018-02-04T06:06:01.658Z,1017.10
2018-02-04T06:16:02.419Z,1017.30
2018-02-04T06:21:01.447Z,1017.50
2018-02-04T06:26:06.428Z,1017.50
2018-02-04T06:31:06.408Z,1017.61
2018-02-04T06:36:01.390Z,1017.61
2018-02-04T06:41:01.334Z,1017.91
2018-02-04T06:46:01.396Z,1017.91
2018-02-04T06:51:01.396Z,1018.06
2018-02-04T07:01:01.388Z,1018.35
2018-02-04T07:06:01.377Z,1018.35
2018-02-04T07:11:01.399Z,1018.63
2018-02-04T07:21:01.425Z,1018.88
2018-02-04T07:36:01.381Z,1019.02
2018-02-04T07:51:01.421Z,1019.32
2018-02-04T08:06:01.425Z,1019.61
2018-02-04T08:16:01.474Z,1019.77
2018-02-04T08:31:01.386Z,1020.17
2018-02-04T08:41:01.352Z,1020.39
2018-02-04T08:56:01.434Z,1020.57
2018-02-04T09:06:01.435Z,1020.72
2018-02-04T09:21:01.415Z,1021.07
2018-02-04T09:31:01.426Z,1021.27
2018-02-04T09:46:01.441Z,1021.41
2018-02-04T09:52:01.681Z,1021.65
2018-02-04T10:02:01.233Z,1021.82
2018-02-04T10:12:01.523Z,1021.95
2018-02-04T10:22:01.624Z,1022.06
2018-02-04T10:37:01.495Z,1022.22
2018-02-04T10:47:01.289Z,1022.30
2018-02-04T10:57:01.563Z,1022.44
2018-02-04T11:12:01.578Z,1022.75
2018-02-04T11:22:01.548Z,1022.80
2018-02-04T11:37:01.563Z,1022.80
2018-02-04T11:47:01.239Z,1022.88
2018-02-04T12:02:01.300Z,1023.26
2018-02-04T12:17:01.397Z,1023.38
2018-02-04T12:27:01.376Z,1023.59
2018-02-04T12:42:01.366Z,1023.66
2018-02-04T12:57:01.359Z,1023.76
2018-02-04T18:06:01.252Z,1027.98
2018-02-04T18:26:01.138Z,1028.28
2018-02-04T18:41:00.997Z,1028.43
2018-02-04T18:51:01.052Z,1028.49
2018-02-04T19:06:00.983Z,1028.63
2018-02-04T19:21:01.080Z,1028.84
2018-02-04T19:36:00.943Z,1028.98
2018-02-04T19:51:01.009Z,1029.29
2018-02-04T20:06:00.974Z,1029.47
2018-02-04T20:21:01.091Z,1029.69
2018-02-04T20:36:00.956Z,1029.62
2018-02-04T20:51:01.197Z,1029.78
2018-02-04T21:06:00.971Z,1029.90
2018-02-04T21:21:01.104Z,1030.12
2018-02-04T21:36:00.989Z,1030.22
2018-02-04T21:51:01.041Z,1030.33
2018-02-04T22:06:00.984Z,1030.36
2018-02-04T22:21:02.015Z,1030.31
2018-02-04T22:36:00.980Z,1030.44
2018-02-04T22:51:01.038Z,1030.62
2018-02-04T23:06:00.994Z,1030.55
2018-02-04T23:11:02.144Z,1030.56
2018-02-04T23:26:01.189Z,1030.59
2018-02-04T23:41:01.128Z,1030.61
2018-02-04T23:56:01.123Z,1030.64
